Time;durP1;ratioP1;P1;durP2;ratioP2;P2;SDS_P1;SDS_P2;PMS_P1;PMS_P2;Temp;Humidity;BMP_temperature;BMP_pressure;BME280_temperature;BME280_humidity;BME280_pressure;Samples;Min_cycle;Max_cycle;Signal;HPM_P1;HPM_P2
2022/05/23 00:01:44;;;;;;;2.93;1.10;;;;;;;17.52;51.30;97794.66;4994925;28;20239;-49
2022/05/23 00:04:11;;;;;;;2.10;1.00;;;;;;;17.40;52.18;97784.00;4995149;28;20246;-49
2022/05/23 00:06:38;;;;;;;1.97;1.13;;;;;;;17.32;52.29;97778.19;4995194;28;20265;-49
2022/05/23 00:09:05;;;;;;;3.77;1.20;;;;;;;17.25;52.31;97771.13;4995645;28;20717;-49
2022/05/23 00:11:33;;;;;;;1.60;1.17;;;;;;;17.15;52.58;97770.81;4994413;28;20285;-49
2022/05/23 00:14:01;;;;;;;2.30;1.20;;;;;;;17.33;51.81;97767.44;4993616;28;20622;-49
2022/05/23 00:16:33;;;;;;;2.57;1.30;;;;;;;17.39;51.50;97768.38;4994866;28;20568;-49
2022/05/23 00:19:00;;;;;;;2.07;1.03;;;;;;;17.59;50.84;97765.56;4995219;28;20214;-49
2022/05/23 00:21:27;;;;;;;4.10;1.10;;;;;;;17.79;50.87;97757.47;4994220;28;20293;-49
2022/05/23 00:23:54;;;;;;;3.27;1.10;;;;;;;17.77;50.95;97767.44;4995095;28;20632;-52
2022/05/23 00:26:23;;;;;;;1.33;1.10;;;;;;;17.89;49.55;97753.50;4995378;28;20224;-50
2022/05/23 00:28:50;;;;;;;2.80;1.03;;;;;;;18.00;48.87;97745.69;4978229;28;20228;-49
2022/05/23 00:31:19;;;;;;;1.80;1.13;;;;;;;18.04;49.12;97740.75;4977400;28;20625;-49
2022/05/23 00:36:32;;;;;;;6.53;1.30;;;;;;;18.17;50.11;97736.34;4977674;28;20216;-52
2022/05/23 00:39:00;;;;;;;3.50;1.27;;;;;;;18.13;49.28;97718.31;4995519;28;20298;-50
2022/05/23 00:44:20;;;;;;;6.03;1.83;;;;;;;18.13;50.20;97707.75;4977397;28;20435;-49
2022/05/23 00:46:52;;;;;;;2.20;1.00;;;;;;;18.05;51.08;97692.19;4982161;28;20773;-49
2022/05/23 00:49:22;;;;;;;2.00;1.00;;;;;;;17.85;51.55;97685.31;4992819;28;20307;-50
2022/05/23 00:51:48;;;;;;;1.93;1.10;;;;;;;17.70;51.70;97684.88;4991068;28;20595;-49
2022/05/23 00:54:16;;;;;;;3.17;1.20;;;;;;;17.61;52.17;97673.78;4993644;28;20605;-50
2022/05/23 00:56:47;;;;;;;1.63;1.03;;;;;;;17.49;52.85;97660.53;4993615;28;20196;-49
2022/05/23 00:59:19;;;;;;;2.57;1.17;;;;;;;17.37;54.32;97662.28;4995408;28;20199;-50
2022/05/23 01:01:47;;;;;;;2.50;1.30;;;;;;;17.27;54.92;97668.06;4993721;28;20217;-50
2022/05/23 01:04:16;;;;;;;3.97;1.40;;;;;;;17.21;54.11;97669.72;4993737;28;20200;-50
2022/05/23 01:06:44;;;;;;;1.47;1.20;;;;;;;17.27;52.74;97662.78;4994866;28;20210;-49
2022/05/23 01:09:12;;;;;;;2.40;1.00;;;;;;;17.34;52.52;97668.00;4994460;28;20195;-49
2022/05/23 01:11:40;;;;;;;2.90;1.30;;;;;;;17.46;53.63;97663.63;4993578;28;20214;-50
2022/05/23 01:14:08;;;;;;;3.00;1.23;;;;;;;17.46;52.50;97663.63;4995078;28;20185;-50
2022/05/23 01:16:39;;;;;;;2.83;1.10;;;;;;;17.56;51.62;97661.28;4993673;28;20287;-50
2022/05/23 01:19:06;;;;;;;2.10;1.13;;;;;;;17.66;51.80;97667.88;4993541;28;20196;-49
2022/05/23 01:21:46;;;;;;;2.90;1.03;;;;;;;17.75;53.00;97665.72;4993158;28;20227;-49
2022/05/23 01:24:21;;;;;;;6.73;1.37;;;;;;;17.78;52.07;97666.13;4993331;28;20753;-49
2022/05/23 01:26:56;;;;;;;2.43;1.20;;;;;;;17.70;52.78;97667.19;4993302;28;20225;-49
2022/05/23 01:29:32;;;;;;;1.77;1.13;;;;;;;17.65;53.51;97671.53;4993670;28;20251;-50
2022/05/23 01:32:11;;;;;;;2.20;1.43;;;;;;;17.56;53.29;97671.00;4992386;28;20576;-49
2022/05/23 01:34:42;;;;;;;2.47;1.37;;;;;;;17.54;52.60;97665.13;4993316;28;20192;-49
2022/05/23 01:37:16;;;;;;;3.53;1.00;;;;;;;17.48;53.30;97661.56;4993685;28;20752;-49
2022/05/23 01:39:58;;;;;;;4.70;1.10;;;;;;;17.53;53.08;97667.00;4993450;28;20208;-49
2022/05/23 01:42:47;;;;;;;3.07;1.23;;;;;;;17.56;54.17;97663.91;4993173;28;20252;-49
2022/05/23 01:45:23;;;;;;;3.70;1.30;;;;;;;17.44;55.75;97660.38;4993746;28;20201;-49
2022/05/23 01:47:51;;;;;;;3.90;1.20;;;;;;;17.28;56.67;97656.50;4994940;28;20177;-49
2022/05/23 01:50:20;;;;;;;2.23;1.50;;;;;;;17.15;57.43;97651.34;4990530;28;20674;-49
2022/05/23 01:52:52;;;;;;;5.37;1.40;;;;;;;16.99;59.12;97644.78;4969589;28;20221;-49
2022/05/23 01:55:22;;;;;;;7.13;1.60;;;;;;;16.86;59.03;97646.50;4991709;28;20257;-49
2022/05/23 01:58:10;;;;;;;3.37;1.40;;;;;;;16.71;60.24;97635.47;4994328;28;20324;-49
2022/05/23 02:03:33;;;;;;;2.37;1.50;;;;;;;16.47;62.22;97632.59;4976812;28;20230;-49
2022/05/23 02:05:59;;;;;;;5.47;1.67;;;;;;;16.38;63.34;97624.97;4976631;28;20219;-49
2022/05/23 02:08:27;;;;;;;3.70;1.60;;;;;;;16.28;63.82;97624.63;4976351;28;20663;-49
2022/05/23 02:10:54;;;;;;;2.13;1.43;;;;;;;16.19;63.95;97626.72;4976221;28;20249;-49
2022/05/23 02:13:35;;;;;;;1.47;1.23;;;;;;;16.12;65.05;97617.22;4977171;28;20197;-49
2022/05/23 02:16:04;;;;;;;2.87;1.40;;;;;;;16.06;64.08;97606.53;4976966;28;20305;-48
2022/05/23 02:18:41;;;;;;;4.00;1.10;;;;;;;16.01;64.66;97600.28;4977140;28;20683;-49
2022/05/23 02:21:09;;;;;;;4.07;2.27;;;;;;;16.00;65.80;97588.94;4977009;28;20243;-49
2022/05/23 02:23:39;;;;;;;4.13;1.50;;;;;;;15.94;65.82;97580.06;4976859;28;20186;-49
2022/05/23 02:26:25;;;;;;;1.33;1.13;;;;;;;15.94;66.34;97574.00;4995206;28;20264;-49
2022/05/23 02:28:59;;;;;;;2.20;1.40;;;;;;;15.91;66.29;97572.59;4977369;28;20212;-49
2022/05/23 02:31:29;;;;;;;3.03;1.60;;;;;;;15.87;67.43;97579.31;4976799;28;20221;-49
2022/05/23 02:34:14;;;;;;;4.30;1.40;;;;;;;15.87;67.46;97573.25;4995554;28;20558;-49
2022/05/23 02:36:49;;;;;;;3.40;1.40;;;;;;;15.83;66.87;97582.53;4977476;28;20217;-51
2022/05/23 02:39:21;;;;;;;4.83;1.60;;;;;;;15.82;66.08;97586.19;4977594;28;20253;-49
2022/05/23 02:41:51;;;;;;;2.43;1.57;;;;;;;15.85;66.28;97585.78;4977711;28;20721;-49
2022/05/23 02:44:23;;;;;;;2.00;1.30;;;;;;;15.89;65.40;97589.63;4977949;28;20197;-49
2022/05/23 02:46:51;;;;;;;2.80;1.53;;;;;;;15.99;64.37;97597.84;4976633;28;20650;-49
2022/05/23 02:49:23;;;;;;;2.83;1.60;;;;;;;16.09;64.83;97607.94;4976805;28;20666;-49
2022/05/23 02:52:09;;;;;;;3.87;1.57;;;;;;;16.12;64.13;97619.84;4994042;28;20220;-49
2022/05/23 02:55:00;;;;;;;1.83;1.47;;;;;;;16.15;64.67;97630.78;4976731;28;20248;-49
2022/05/23 02:57:29;;;;;;;3.70;1.97;;;;;;;16.17;64.98;97660.34;4976604;28;20201;-49
2022/05/23 02:59:58;;;;;;;2.37;1.73;;;;;;;16.06;66.79;97703.91;4976546;28;20217;-49
2022/05/23 03:05:11;;;;;;;5.53;2.30;;;;;;;15.82;67.38;97721.19;4976629;28;20664;-49
2022/05/23 03:07:38;;;;;;;3.63;2.10;;;;;;;15.93;67.39;97777.66;4976244;28;20196;-49
2022/05/23 03:10:06;;;;;;;5.57;2.00;;;;;;;16.18;66.60;97859.41;4993492;28;20268;-48
2022/05/23 03:12:35;;;;;;;4.97;2.20;;;;;;;16.30;66.48;97854.31;4975801;28;20325;-49
2022/05/23 03:15:05;;;;;;;7.77;2.30;;;;;;;16.26;66.66;97861.00;4976320;28;20554;-49
2022/05/23 03:17:35;;;;;;;4.80;2.50;;;;;;;16.18;67.20;97890.19;4976294;28;20204;-49
2022/05/23 03:20:03;;;;;;;9.47;3.00;;;;;;;15.88;69.95;97891.44;4976525;28;20243;-49
2022/05/23 03:28:01;;;;;;;5.00;3.23;;;;;;;15.63;72.58;97912.25;4976240;28;20270;-49
2022/05/23 03:30:33;;;;;;;4.40;3.60;;;;;;;15.49;74.33;97938.53;4976083;28;20190;-49
2022/05/23 03:33:00;;;;;;;7.03;3.63;;;;;;;15.43;75.84;97949.03;4976018;28;20724;-49
2022/05/23 03:35:30;;;;;;;11.37;5.17;;;;;;;15.37;80.65;97958.53;4993465;28;20185;-49
2022/05/23 03:37:59;;;;;;;8.20;3.77;;;;;;;15.25;82.89;97981.97;4976295;28;20187;-50
2022/05/23 03:40:29;;;;;;;8.10;3.57;;;;;;;15.19;86.46;97980.94;4975848;28;20674;-49
2022/05/23 03:43:00;;;;;;;8.00;4.10;;;;;;;14.96;90.08;97993.56;4970657;28;20252;-49
2022/05/23 03:45:29;;;;;;;10.07;4.87;;;;;;;14.84;91.07;97994.09;4975656;28;20202;-49
2022/05/23 03:47:58;;;;;;;8.43;4.53;;;;;;;14.78;92.54;97988.81;4975805;28;20197;-49
2022/05/23 03:50:28;;;;;;;11.80;4.40;;;;;;;14.79;94.05;97964.19;4975559;28;20200;-49
2022/05/23 03:52:59;;;;;;;10.97;4.57;;;;;;;14.72;95.01;97954.44;4975282;28;20709;-49
2022/05/23 03:55:30;;;;;;;9.03;4.30;;;;;;;14.81;95.78;97935.91;4975709;28;20280;-49
2022/05/23 03:58:15;;;;;;;6.50;4.03;;;;;;;14.81;96.08;97899.13;4975783;28;20264;-49
2022/05/23 04:00:49;;;;;;;8.47;3.93;;;;;;;14.82;94.55;97882.34;4976245;28;20308;-49
2022/05/23 04:03:18;;;;;;;10.03;3.23;;;;;;;14.85;93.74;97882.75;4993134;28;20216;-49
2022/05/23 04:05:47;;;;;;;7.73;3.70;;;;;;;14.90;94.74;97874.28;4975607;28;20212;-49
2022/05/23 04:08:19;;;;;;;6.27;3.40;;;;;;;14.89;96.32;97859.53;4975490;28;20189;-49
2022/05/23 04:10:52;;;;;;;9.57;3.60;;;;;;;14.90;96.56;97842.75;4975633;28;20197;-49
2022/05/23 04:13:20;;;;;;;4.57;3.13;;;;;;;14.90;95.31;97832.25;4975212;28;20297;-49
2022/05/23 04:15:47;;;;;;;4.50;3.40;;;;;;;14.87;95.55;97845.78;4975581;28;20845;-49
2022/05/23 04:18:14;;;;;;;5.47;3.03;;;;;;;14.90;96.19;97837.50;4975359;28;20223;-49
2022/05/23 04:20:44;;;;;;;3.60;2.73;;;;;;;14.96;95.67;97822.75;4975514;28;20213;-49
2022/05/23 04:23:18;;;;;;;4.33;2.57;;;;;;;15.00;95.38;97821.34;4975315;28;20241;-49
2022/05/23 04:25:49;;;;;;;4.67;2.97;;;;;;;15.04;96.63;97828.66;4975727;28;20201;-49
2022/05/23 04:28:20;;;;;;;4.13;3.37;;;;;;;15.06;99.07;97838.94;4975491;28;20236;-49
2022/05/23 04:30:48;;;;;;;5.37;3.47;;;;;;;15.05;98.85;97805.78;4975702;28;20197;-49
2022/05/23 04:36:06;;;;;;;4.00;3.00;;;;;;;15.02;100.00;97687.94;4979487;28;20200;-49
2022/05/23 04:38:37;;;;;;;3.40;2.83;;;;;;;15.17;100.00;97643.84;4979464;28;20194;-49
2022/05/23 04:41:08;;;;;;;4.63;2.60;;;;;;;15.30;99.33;97624.63;4979074;28;20216;-49
2022/05/23 04:43:51;;;;;;;5.77;3.37;;;;;;;15.51;99.59;97591.16;4979364;28;20225;-49
2022/05/23 04:46:23;;;;;;;3.40;2.97;;;;;;;15.63;99.85;97589.50;4979050;28;20236;-49
2022/05/23 04:51:59;;;;;;;7.33;3.70;;;;;;;15.58;100.00;97609.56;4978234;28;20228;-49
2022/05/23 04:54:34;;;;;;;5.93;3.60;;;;;;;15.65;100.00;97621.66;4979163;28;20200;-49
2022/05/23 04:57:04;;;;;;;5.37;3.37;;;;;;;15.76;100.00;97633.38;4996345;28;20211;-49
2022/05/23 04:59:34;;;;;;;6.23;3.17;;;;;;;15.84;100.00;97613.09;4979183;28;20194;-49
2022/05/23 05:02:03;;;;;;;7.50;3.37;;;;;;;15.92;100.00;97586.56;4978690;28;20232;-49
2022/05/23 05:04:31;;;;;;;4.97;3.30;;;;;;;15.95;100.00;97588.75;4996843;28;20244;-49
2022/05/23 05:07:00;;;;;;;6.37;4.00;;;;;;;16.01;100.00;97585.28;4979610;28;20197;-49
2022/05/23 05:09:28;;;;;;;4.67;3.43;;;;;;;16.13;100.00;97574.09;4979201;28;20217;-50
2022/05/23 05:12:06;;;;;;;8.20;4.00;;;;;;;16.11;100.00;97552.44;4978534;28;20208;-49
2022/05/23 05:14:36;;;;;;;5.47;3.73;;;;;;;16.15;100.00;97554.44;4978335;28;20203;-49
2022/05/23 05:17:08;;;;;;;7.17;3.40;;;;;;;16.22;100.00;97538.59;4978209;28;20195;-51
2022/05/23 05:19:36;;;;;;;6.00;3.87;;;;;;;16.28;100.00;97516.66;4978216;28;20197;-49
2022/05/23 05:22:34;;;;;;;5.53;3.77;;;;;;;16.43;100.00;97503.16;4995281;28;20672;-49
2022/05/23 05:25:26;;;;;;;7.17;3.73;;;;;;;16.55;100.00;97494.53;4982621;28;20195;-49
2022/05/23 05:27:59;;;;;;;4.23;3.70;;;;;;;16.66;100.00;97488.56;4978030;28;20567;-49
2022/05/23 05:30:26;;;;;;;6.53;3.80;;;;;;;16.73;100.00;97489.31;4978271;28;20202;-49
2022/05/23 05:32:59;;;;;;;7.30;4.40;;;;;;;16.83;100.00;97486.19;4995707;28;20217;-49
2022/05/23 05:35:31;;;;;;;6.53;3.70;;;;;;;16.92;100.00;97466.41;4995593;28;20196;-49
2022/05/23 05:38:04;;;;;;;9.77;4.07;;;;;;;17.08;100.00;97462.41;4995618;28;20194;-49
2022/05/23 05:40:34;;;;;;;11.57;4.20;;;;;;;17.21;100.00;97442.16;4978089;28;20210;-50
2022/05/23 05:43:05;;;;;;;7.87;4.10;;;;;;;17.34;100.00;97443.81;4973139;28;20220;-49
2022/05/23 05:45:40;;;;;;;7.67;3.70;;;;;;;17.44;100.00;97438.81;4968296;28;20687;-49
2022/05/23 05:48:20;;;;;;;5.60;3.97;;;;;;;17.43;100.00;97455.66;4977165;28;20195;-49
2022/05/23 05:50:50;;;;;;;10.67;4.10;;;;;;;17.64;100.00;97485.22;4976979;28;20218;-49
2022/05/23 05:53:25;;;;;;;7.37;4.23;;;;;;;17.55;100.00;97509.28;4976323;28;20266;-49
2022/05/23 05:55:58;;;;;;;6.10;4.00;;;;;;;16.94;98.03;97521.53;4977009;28;20199;-50
2022/05/23 05:58:26;;;;;;;5.67;4.40;;;;;;;16.88;98.43;97546.94;4977484;28;20720;-49
2022/05/23 06:00:56;;;;;;;7.67;5.23;;;;;;;17.05;98.13;97567.47;4977314;28;20294;-49
2022/05/23 06:03:28;;;;;;;9.00;4.20;;;;;;;17.23;97.67;97577.22;4976974;28;20229;-49
2022/05/23 06:11:55;;;;;;;7.70;4.43;;;;;;;16.99;93.98;97608.69;4978304;28;20215;-50
2022/05/23 06:14:26;;;;;;;8.37;4.83;;;;;;;16.79;93.84;97609.66;4979872;28;20214;-49
2022/05/23 06:17:00;;;;;;;8.37;5.10;;;;;;;16.98;94.66;97609.72;4979722;28;20218;-49
2022/05/23 06:19:38;;;;;;;7.33;4.67;;;;;;;17.09;92.84;97600.28;4987718;28;20737;-49
2022/05/23 06:22:26;;;;;;;8.43;4.23;;;;;;;17.23;91.54;97591.22;4968383;28;20225;-49
2022/05/23 06:25:09;;;;;;;7.43;4.67;;;;;;;17.37;91.70;97593.69;4993076;28;20199;-49
2022/05/23 06:27:38;;;;;;;7.03;4.33;;;;;;;17.56;90.68;97581.28;4969484;28;20218;-49
2022/05/23 06:30:10;;;;;;;9.17;4.40;;;;;;;17.66;87.86;97583.44;4994046;28;20602;-49
2022/05/23 06:32:49;;;;;;;6.57;3.97;;;;;;;17.91;85.65;97595.69;4976334;28;20209;-49
2022/05/23 06:35:30;;;;;;;6.53;3.90;;;;;;;17.89;84.89;97603.03;4976984;28;20200;-50
2022/05/23 06:37:57;;;;;;;7.23;4.27;;;;;;;17.85;86.28;97606.13;4976539;28;20567;-49
2022/05/23 06:40:50;;;;;;;6.13;3.93;;;;;;;17.94;85.54;97600.53;4991917;28;20666;-48
2022/05/23 06:43:19;;;;;;;13.60;5.07;;;;;;;17.85;84.54;97603.47;4993563;28;20236;-48
2022/05/23 06:46:14;;;;;;;5.53;4.33;;;;;;;17.96;83.03;97617.75;4963110;28;20216;-49
2022/05/23 06:48:50;;;;;;;6.27;4.23;;;;;;;17.87;84.12;97602.47;4993775;28;20191;-49
2022/05/23 06:51:40;;;;;;;7.47;4.37;;;;;;;18.11;85.76;97598.09;4974976;28;20212;-49
2022/05/23 06:54:08;;;;;;;7.50;5.10;;;;;;;18.36;86.87;97591.84;4975269;28;20233;-51
2022/05/23 06:56:43;;;;;;;8.77;4.43;;;;;;;18.59;82.13;97583.13;4991836;28;20662;-51
2022/05/23 06:59:16;;;;;;;10.60;4.90;;;;;;;18.45;82.37;97585.19;4976109;28;20222;-49
2022/05/23 07:01:46;;;;;;;8.23;4.50;;;;;;;18.77;82.55;97578.78;4974971;28;20276;-49
2022/05/23 07:12:56;;;;;;;7.30;3.83;;;;;;;19.53;80.44;97562.94;4975205;28;20209;-49
2022/05/23 07:15:24;;;;;;;13.50;4.37;;;;;;;19.55;78.25;97552.13;4975324;28;20203;-49
2022/05/23 07:17:52;;;;;;;8.30;4.70;;;;;;;19.37;78.21;97547.78;4975431;28;20205;-49
2022/05/23 07:20:25;;;;;;;7.23;4.43;;;;;;;19.49;78.25;97539.84;4975112;28;20200;-49
2022/05/23 07:23:11;;;;;;;6.80;4.20;;;;;;;19.65;79.32;97535.63;4992439;28;20721;-49
2022/05/23 07:25:43;;;;;;;7.17;4.37;;;;;;;19.79;77.97;97539.59;4975214;28;20281;-49
2022/05/23 07:28:13;;;;;;;6.77;4.37;;;;;;;19.78;79.70;97537.97;4974932;28;20291;-49
2022/05/23 07:30:42;;;;;;;7.53;4.13;;;;;;;19.93;78.53;97526.88;4992701;28;20184;-49
2022/05/23 07:33:11;;;;;;;8.30;4.60;;;;;;;20.19;77.50;97528.09;4974610;28;20226;-49
2022/05/23 07:35:59;;;;;;;9.23;4.50;;;;;;;20.40;77.14;97527.63;4975778;28;20250;-49
2022/05/23 07:38:28;;;;;;;9.47;4.97;;;;;;;20.49;76.77;97529.63;4975109;28;20194;-49
2022/05/23 07:40:59;;;;;;;8.17;4.27;;;;;;;20.57;78.59;97528.44;4976028;28;20209;-48
2022/05/23 07:43:35;;;;;;;8.30;4.20;;;;;;;20.92;75.12;97524.69;4983559;28;20688;-50
2022/05/23 07:46:09;;;;;;;9.10;4.00;;;;;;;20.81;74.99;97517.63;4975684;28;20624;-48
2022/05/23 07:48:56;;;;;;;6.27;4.10;;;;;;;20.67;73.78;97511.06;4993167;28;20213;-49
2022/05/23 07:51:24;;;;;;;7.33;4.80;;;;;;;20.61;76.55;97495.09;4974950;28;20539;-50
2022/05/23 08:02:32;;;;;;;6.30;4.50;;;;;;;20.86;76.27;97456.69;4992141;28;20347;-49
2022/05/23 08:05:04;;;;;;;8.70;4.90;;;;;;;21.10;74.96;97459.09;4974828;28;20257;-49
2022/05/23 08:07:31;;;;;;;7.93;4.63;;;;;;;21.12;72.52;97458.88;4975165;28;20196;-49
2022/05/23 08:10:01;;;;;;;6.87;4.07;;;;;;;20.88;72.86;97467.06;4977537;28;20196;-49
2022/05/23 08:12:34;;;;;;;12.90;4.67;;;;;;;21.01;73.77;97464.06;4978391;28;20227;-50
2022/05/23 08:15:04;;;;;;;9.57;4.93;;;;;;;20.81;74.01;97469.09;4978600;28;20226;-49
2022/05/23 08:17:33;;;;;;;9.00;4.57;;;;;;;20.88;74.55;97483.78;4978927;28;20194;-49
2022/05/23 08:20:16;;;;;;;12.83;4.70;;;;;;;20.89;73.90;97496.00;4978355;28;20221;-49
2022/05/23 08:22:45;;;;;;;8.27;4.40;;;;;;;21.03;76.51;97516.84;4978030;28;20228;-49
2022/05/23 08:25:19;;;;;;;7.70;4.80;;;;;;;20.84;75.40;97527.75;4978554;28;20194;-50
2022/05/23 08:27:54;;;;;;;8.10;5.87;;;;;;;20.47;75.32;97542.31;4978247;28;20631;-50
2022/05/23 08:30:23;;;;;;;11.50;5.63;;;;;;;20.19;75.63;97545.84;4978482;28;20200;-50
2022/05/23 08:32:59;;;;;;;8.73;5.77;;;;;;;20.16;77.51;97559.59;4977985;28;20759;-50
2022/05/23 08:35:27;;;;;;;9.80;6.83;;;;;;;20.23;76.43;97560.22;4978268;28;20655;-50
2022/05/23 08:38:00;;;;;;;8.20;5.53;;;;;;;20.50;76.44;97551.66;4978445;28;20662;-50
2022/05/23 08:41:03;;;;;;;12.30;6.97;;;;;;;20.34;75.89;97545.28;4978246;28;20209;-49
2022/05/23 08:43:40;;;;;;;11.17;7.30;;;;;;;20.10;76.20;97540.16;4978395;28;20695;-50
2022/05/23 08:46:13;;;;;;;8.63;7.03;;;;;;;19.98;78.18;97534.91;4976201;28;20187;-51
2022/05/23 08:49:06;;;;;;;9.23;6.20;;;;;;;20.13;77.48;97530.91;4988757;28;20214;-50
2022/05/23 08:51:45;;;;;;;11.10;6.73;;;;;;;20.03;76.16;97527.06;4975077;28;20219;-52
2022/05/23 08:54:24;;;;;;;10.33;6.83;;;;;;;19.88;77.65;97518.81;4973379;28;20251;-49
2022/05/23 08:57:34;;;;;;;11.37;6.70;;;;;;;19.78;78.74;97516.81;4990916;28;20666;-50
2022/05/23 09:00:08;;;;;;;7.30;5.80;;;;;;;19.79;78.67;97526.34;4969235;28;20650;-50
2022/05/23 09:02:43;;;;;;;10.77;7.53;;;;;;;19.60;79.11;97531.84;4972536;28;20227;-50
2022/05/23 09:05:32;;;;;;;9.97;7.20;;;;;;;19.19;82.31;97517.81;4971410;28;20203;-49
2022/05/23 09:08:02;;;;;;;13.77;7.50;;;;;;;19.34;83.16;97522.63;4987144;28;20284;-49
2022/05/23 09:10:35;;;;;;;10.33;7.33;;;;;;;19.54;81.09;97538.06;4991238;28;20203;-50
2022/05/23 09:13:02;;;;;;;11.03;6.80;;;;;;;19.83;80.88;97548.66;4989680;28;20599;-49
2022/05/23 09:15:29;;;;;;;11.07;7.33;;;;;;;19.96;78.10;97550.25;4991534;28;20249;-49
2022/05/23 09:18:01;;;;;;;13.97;7.30;;;;;;;19.99;77.41;97544.47;4984522;28;20215;-49
2022/05/23 09:20:36;;;;;;;9.30;7.20;;;;;;;19.80;78.16;97537.72;4987271;28;20198;-49
2022/05/23 09:23:07;;;;;;;8.33;6.87;;;;;;;19.92;77.34;97546.47;4986524;28;20215;-49
2022/05/23 09:25:35;;;;;;;11.33;7.07;;;;;;;20.31;77.47;97545.78;4972541;28;20196;-49
2022/05/23 09:28:15;;;;;;;10.93;7.33;;;;;;;20.90;74.88;97561.25;4986914;28;20198;-50
2022/05/23 09:30:46;;;;;;;15.50;6.73;;;;;;;21.48;73.10;97582.16;4990484;28;20610;-52
2022/05/23 09:33:32;;;;;;;12.27;6.93;;;;;;;21.66;67.81;97591.69;4988433;28;20364;-50
2022/05/23 09:36:11;;;;;;;6.50;5.60;;;;;;;21.58;67.84;97581.47;4985259;28;20323;-50
2022/05/23 09:38:47;;;;;;;8.63;6.53;;;;;;;21.45;69.47;97576.53;4986515;28;20217;-49
2022/05/23 09:49:55;;;;;;;9.77;6.03;;;;;;;20.57;76.46;97584.09;5000900;28;20273;-52
2022/05/23 09:52:29;;;;;;;8.03;6.00;;;;;;;20.42;77.51;97599.75;4992085;28;20754;-50
2022/05/23 09:54:59;;;;;;;10.43;5.83;;;;;;;20.29;77.92;97603.50;4998090;28;20313;-50
2022/05/23 09:57:27;;;;;;;10.30;6.37;;;;;;;20.14;80.49;97610.13;4996473;28;20222;-49
2022/05/23 09:59:58;;;;;;;13.90;7.20;;;;;;;20.00;80.51;97630.03;4992974;28;20224;-50
2022/05/23 10:02:36;;;;;;;11.30;7.20;;;;;;;19.86;79.42;97627.63;4983125;28;20291;-49
2022/05/23 10:05:06;;;;;;;12.77;6.70;;;;;;;19.60;81.18;97626.34;4993514;28;20199;-49
2022/05/23 10:07:36;;;;;;;10.57;7.40;;;;;;;19.44;82.05;97639.25;4993131;28;20181;-50
2022/05/23 10:10:05;;;;;;;10.30;8.00;;;;;;;19.46;82.38;97673.41;4993535;28;20298;-50
2022/05/23 10:12:51;;;;;;;12.60;8.93;;;;;;;18.86;86.26;97696.38;4992737;28;20249;-49
2022/05/23 10:15:24;;;;;;;13.60;7.97;;;;;;;18.76;86.29;97710.13;4975898;28;20199;-50
2022/05/23 10:18:02;;;;;;;10.80;8.23;;;;;;;18.53;90.00;97721.47;4993142;28;20245;-49
2022/05/23 10:20:37;;;;;;;11.33;8.40;;;;;;;18.28;92.13;97731.13;4992109;28;20611;-49
2022/05/23 10:23:07;;;;;;;12.20;7.10;;;;;;;18.05;94.27;97758.22;4992072;28;20211;-49
2022/05/23 10:25:40;;;;;;;12.77;7.27;;;;;;;17.74;96.37;97762.59;4991539;28;20201;-50
2022/05/23 10:28:12;;;;;;;14.63;6.57;;;;;;;17.47;99.71;97696.88;4987470;28;20201;-49
2022/05/23 10:30:46;;;;;;;9.70;5.63;;;;;;;17.31;98.91;97647.34;4966926;28;20192;-49
2022/05/23 10:33:14;;;;;;;11.83;6.00;;;;;;;17.34;100.00;97660.09;4981685;28;20285;-50
2022/05/23 10:35:59;;;;;;;11.07;5.07;;;;;;;17.35;99.77;97632.69;4981611;28;20195;-52
2022/05/23 10:44:15;;;;;;;13.40;3.90;;;;;;;17.50;100.00;97561.06;4986879;28;20575;-49
2022/05/23 10:46:47;;;;;;;9.57;4.30;;;;;;;17.50;100.00;97580.38;4987443;28;20373;-52
2022/05/23 10:49:20;;;;;;;8.80;3.70;;;;;;;17.58;99.12;97565.25;4969404;28;20709;-49
2022/05/23 10:52:10;;;;;;;14.60;4.13;;;;;;;17.71;99.08;97576.44;4983889;28;20244;-49
2022/05/23 10:54:45;;;;;;;8.13;4.47;;;;;;;17.84;100.00;97564.09;4986920;28;20188;-49
2022/05/23 10:57:25;;;;;;;9.50;4.70;;;;;;;17.97;100.00;97557.84;4992214;28;20195;-49
2022/05/23 11:00:03;;;;;;;11.53;4.47;;;;;;;18.14;100.00;97556.19;4974691;28;20202;-50
2022/05/23 11:02:43;;;;;;;16.13;4.20;;;;;;;18.24;100.00;97557.47;4991598;28;20222;-51
2022/05/23 11:05:21;;;;;;;13.93;4.70;;;;;;;18.36;99.74;97550.38;4992080;28;20248;-50
2022/05/23 11:08:05;;;;;;;10.93;4.70;;;;;;;18.48;100.00;97515.22;4992811;28;20181;-49
2022/05/23 11:10:40;;;;;;;14.97;4.43;;;;;;;18.48;98.38;97488.81;4992058;28;20275;-50
2022/05/23 11:13:27;;;;;;;9.70;4.23;;;;;;;18.67;95.85;97439.25;4991893;28;20705;-50
2022/05/23 11:16:15;;;;;;;12.07;4.30;;;;;;;18.91;90.79;97429.47;4991931;28;20192;-49
2022/05/23 11:18:56;;;;;;;7.33;4.27;;;;;;;19.10;89.45;97443.31;4991564;28;20683;-49
2022/05/23 11:21:30;;;;;;;9.80;5.50;;;;;;;19.30;89.85;97432.31;4990786;28;20200;-49
2022/05/23 11:24:03;;;;;;;8.67;4.33;;;;;;;19.32;91.71;97416.22;4991109;28;20212;-49
2022/05/23 11:26:34;;;;;;;5.63;4.00;;;;;;;19.40;91.56;97393.84;4992380;28;20198;-50
2022/05/23 11:35:01;;;;;;;7.13;4.00;;;;;;;19.63;90.19;97377.03;4969290;28;20217;-50
2022/05/23 11:37:45;;;;;;;4.87;3.90;;;;;;;19.75;91.50;97366.38;4988548;28;20197;-50
2022/05/23 11:40:35;;;;;;;8.57;3.80;;;;;;;19.73;90.17;97361.31;4982389;28;20643;-49
2022/05/23 11:43:08;;;;;;;5.87;3.50;;;;;;;19.70;88.76;97356.50;4972535;28;20244;-49
2022/05/23 11:48:48;;;;;;;10.80;2.97;;;;;;;19.60;88.68;97343.91;4986913;28;20200;-50
2022/05/23 11:51:25;;;;;;;6.27;3.80;;;;;;;19.53;93.84;97348.56;4976720;28;20196;-49
2022/05/23 11:54:34;;;;;;;8.17;3.20;;;;;;;19.58;89.75;97353.94;4981422;28;20752;-50
2022/05/23 11:57:35;;;;;;;9.20;3.40;;;;;;;19.60;86.17;97373.03;4976244;28;20664;-49
2022/05/23 12:00:28;;;;;;;8.50;3.70;;;;;;;19.60;92.83;97415.38;4954353;28;20208;-49
2022/05/23 12:03:12;;;;;;;6.03;3.93;;;;;;;19.61;89.62;97455.88;4978418;28;20208;-49
2022/05/23 12:05:42;;;;;;;8.50;4.17;;;;;;;19.83;88.34;97449.88;4977789;28;20207;-49
2022/05/23 12:08:37;;;;;;;8.20;4.60;;;;;;;20.10;87.08;97447.44;4995548;28;20227;-49
2022/05/23 12:11:21;;;;;;;8.20;4.00;;;;;;;20.11;84.14;97446.41;4977432;28;20200;-50
2022/05/23 12:13:51;;;;;;;9.33;3.70;;;;;;;20.28;82.76;97475.53;4995067;28;20662;-49
2022/05/23 12:16:39;;;;;;;9.40;3.73;;;;;;;20.60;81.57;97456.38;4995384;28;20199;-50
2022/05/23 12:19:23;;;;;;;6.40;3.47;;;;;;;21.16;79.97;97436.88;4995233;28;20647;-49
2022/05/23 12:21:51;;;;;;;9.40;3.20;;;;;;;21.71;75.60;97425.47;4994372;28;20221;-49
2022/05/23 12:24:36;;;;;;;8.03;3.67;;;;;;;21.97;74.16;97421.97;4993740;28;20221;-50
2022/05/23 12:27:07;;;;;;;8.57;3.40;;;;;;;21.79;71.04;97409.09;4994972;28;20199;-49
2022/05/23 12:29:38;;;;;;;12.07;3.67;;;;;;;22.47;74.01;97400.50;4994999;28;20196;-49
2022/05/23 12:32:18;;;;;;;6.30;3.10;;;;;;;22.80;70.63;97381.75;4993778;28;20705;-50
2022/05/23 12:34:49;;;;;;;5.70;3.10;;;;;;;23.28;72.69;97366.44;4995005;28;20635;-49
2022/05/23 12:37:25;;;;;;;10.30;3.53;;;;;;;23.59;69.35;97366.47;4995208;28;20616;-50
2022/05/23 12:40:03;;;;;;;5.43;2.83;;;;;;;23.85;68.15;97363.75;4994627;28;20680;-50
2022/05/23 12:42:42;;;;;;;7.87;2.90;;;;;;;24.28;68.08;97359.97;4994448;28;20289;-50
2022/05/23 12:45:35;;;;;;;5.90;2.73;;;;;;;24.87;67.40;97354.97;4994114;28;20216;-50
2022/05/23 12:48:28;;;;;;;8.10;2.67;;;;;;;25.35;62.13;97367.75;4994679;28;20204;-50
2022/05/23 12:51:11;;;;;;;9.73;3.10;;;;;;;25.49;60.46;97368.69;4992781;28;20606;-50
2022/05/23 12:54:00;;;;;;;10.30;3.10;;;;;;;25.19;60.90;97359.03;4976307;28;20651;-50
2022/05/23 12:56:48;;;;;;;10.47;3.40;;;;;;;25.05;61.79;97361.53;4989407;28;20209;-50
2022/05/23 12:59:38;;;;;;;9.30;2.95;;;;;;;25.20;59.19;97358.75;4994387;28;20207;-49
2022/05/23 13:02:12;;;;;;;9.10;3.40;;;;;;;25.21;59.94;97354.19;4994025;28;20306;-50
2022/05/23 13:04:47;;;;;;;6.93;2.90;;;;;;;24.76;62.14;97346.19;4994297;28;20221;-50
2022/05/23 13:07:20;;;;;;;9.37;3.07;;;;;;;24.55;60.14;97367.59;4994267;28;20274;-50
2022/05/23 13:09:55;;;;;;;7.60;3.37;;;;;;;24.79;58.34;97360.88;4994253;28;20195;-50
2022/05/23 13:12:25;;;;;;;9.27;3.10;;;;;;;24.57;60.00;97352.13;4994331;28;20285;-50
2022/05/23 13:14:55;;;;;;;10.47;2.97;;;;;;;24.36;57.97;97361.31;4994215;28;20220;-50